ADDS METAR Data INFO
IDs: Format: Raw Decoded Include TAF

Data at: 1950 UTC 18 Feb 2018

KPEO 181853Z AUTO 28007KT 240V310 10SM OVC038 02/M07 A3034 RMK AO2 SLP284 T00171067
KPEO 181753Z AUTO 29006KT 10SM OVC039 02/M07 A3033 RMK AO2 SLP281 T00171072 10022 21011 51013
KPEO 181653Z AUTO 27008KT 10SM OVC035 01/M07 A3033 RMK AO2 SLP281 T00111067
KPEO 181616Z AUTO 27007KT 10SM OVC031 01/M07 A3032 RMK AO2 T00061072
KPEO 181553Z AUTO VRB06KT 10SM OVC027 01/M06 A3030 RMK AO2 SLP273 T00061061
KPEO 181453Z AUTO 28004KT 10SM BKN028 OVC034 00/M06 A3029 RMK AO2 SLP268 T00001061 51031
KPEO 181353Z AUTO 27007KT 10SM OVC040 M01/M06 A3027 RMK AO2 SLP261 T10061056
KPEO 181328Z AUTO 28008G17KT 10SM SCT024 OVC036 M01/M06 A3027 RMK AO2 T10061056
KPEO 181253Z AUTO 28010G14KT 10SM BKN026 OVC033 M01/M06 A3024 RMK AO2 SLP253 T10061056
KPEO 181213Z AUTO 25009KT 10SM BKN029 OVC038 M01/M06 A3021 RMK AO2 PRESRR T10061061
KPEO 181153Z AUTO 25009KT 10SM FEW028 OVC038 M01/M06 A3019 RMK AO2 SLP235 60001 70002 T10111061 11006 21028 51050
KPEO 181133Z AUTO 25011KT 10SM FEW028 OVC038 M01/M06 A3017 RMK AO2 T10061061
KPEO 181105Z AUTO 28006KT 10SM BKN028 OVC036 M01/M06 A3014 RMK AO2 T10111061
KPEO 181053Z AUTO 26009KT 10SM SCT026 OVC036 M01/M06 A3014 RMK AO2 SLP219 T10111061
KPEO 180953Z AUTO 27009KT 10SM FEW029 SCT035 M01/M07 A3009 RMK AO2 SLP201 T10111067
KPEO 180853Z AUTO 27008G15KT 10SM SCT031 OVC070 M01/M07 A3004 RMK AO2 SLP183 60001 T10111067 51032
KPEO 180814Z AUTO 27011G17KT 10SM BKN030 OVC075 M01/M06 A3002 RMK AO2 T10111056
KPEO 180753Z AUTO 27008KT 8SM BKN027 OVC090 M02/M04 A3001 RMK AO2 SNE28 SLP173 P0000 T10171039
KPEO 180742Z AUTO 26003KT 4SM BR FEW009 BKN029 OVC090 M02/M04 A3000 RMK AO2 SNE28 P0000 T10221039
KPEO 180726Z AUTO 00000KT 3SM -SN BR SCT013 BKN024 OVC100 M02/M03 A2999 RMK AO2 P0000 T10221033
KPEO 180719Z AUTO 23003KT 2 1/2SM -SN BR FEW009 BKN015 OVC024 M02/M03 A2999 RMK AO2 P0000 T10221033
KPEO 180702Z AUTO 22003KT 1SM -SN BR FEW006 SCT012 OVC020 M02/M03 A2998 RMK AO2 P0000 T10171033 RVRNO
KPEO 180653Z AUTO 26004KT 3/4SM -SN BR SCT013 OVC021 M02/M03 A2998 RMK AO2 SLP162 P0001 T10171033 RVRNO
KPEO 180628Z AUTO 24004KT 1SM -SN BR VV020 M02/M03 A2996 RMK AO2 P0001 T10171033 RVRNO
KPEO 180614Z AUTO 23005KT 3/4SM -SN BR VV015 M02/M03 A2995 RMK AO2 P0001 T10171033 RVRNO
KPEO 180553Z AUTO 24004KT 1 1/4SM -SN BR FEW004 BKN023 OVC035 M02/M03 A2994 RMK AO2 SLP150 P0000 60001 T10171033 11006 21017 55007
KPEO 180544Z AUTO 21006KT 1 3/4SM -SN BR FEW004 BKN034 OVC065 M02/M03 A2994 RMK AO2 P0000 T10171033
KPEO 180541Z AUTO 21006KT 2 1/2SM -SN BR FEW006 BKN034 OVC065 M02/M04 A2994 RMK AO2 P0000 T10171039
KPEO 180524Z AUTO 22005KT 3SM -SN BR BKN049 BKN070 OVC080 M02/M04 A2994 RMK AO2 P0000 T10171039
KPEO 180504Z AUTO 20006KT 2SM -SN BR OVC031 M02/M04 A2993 RMK AO2 P0000 T10171039
KPEO 180453Z AUTO 19005KT 1 1/4SM -SN BR BKN017 OVC036 M02/M03 A2994 RMK AO2 SLP150 P0001 T10171033 400111083
KPEO 180443Z AUTO 19006KT 1SM -SN BR VV014 M02/M03 A2994 RMK AO2 P0001 T10171033 RVRNO
KPEO 180428Z AUTO 21005KT 1SM -SN BR VV016 M02/M03 A2995 RMK AO2 P0001 T10171033 RVRNO
KPEO 180409Z AUTO 21006KT 3/4SM -SN BR BKN020 BKN034 OVC046 M02/M04 A2995 RMK AO2 P0000 T10171039 RVRNO
KPEO 180353Z AUTO 20008KT 1 3/4SM -SN BKN036 OVC047 M01/M04 A2996 RMK AO2 SLP157 P0000 T10111039
KPEO 180335Z AUTO 20009KT 2SM -SN FEW029 BKN038 OVC080 M01/M04 A2996 RMK AO2 P0000 T10111039
KPEO 180300Z AUTO 20011KT 3SM -SN FEW045 SCT060 OVC090 M01/M04 A2997 RMK AO2 P0000 T10111039
KPEO 180253Z AUTO 19008KT 2 1/2SM -SN FEW030 SCT060 OVC090 M01/M04 A2996 RMK AO2 SLP158 P0000 60000 T10111039 56010
KPEO 180251Z AUTO 19008KT 2 1/2SM -SN FEW030 SCT060 OVC090 M01/M04 A2996 RMK AO2 P0000
KPEO 180236Z AUTO 20006KT 3SM -SN BR FEW030 OVC045 M02/M04 A2997 RMK AO2 P0000 T10171039
KPEO 180230Z AUTO 21006KT 2SM -SN BR OVC033 M02/M04 A2998 RMK AO2 P0000 T10171039
KPEO 180206Z AUTO 21009KT 1 1/2SM -SN OVC027 M01/M04 A2998 RMK AO2 P0000 T10111044
KPEO 180203Z AUTO 22009KT 2SM -SN OVC030 M01/M04 A2999 RMK AO2 P0000 T10111044
KPEO 180153Z AUTO 21010KT 4SM -SN BKN042 OVC065 M01/M04 A2998 RMK AO2 SNB0059 SLP166 P0000 T10111044
KPEO 180128Z AUTO 20008KT 3SM -SN BKN050 BKN070 OVC080 M02/M04 A2999 RMK AO2 SNB0059 P0000 T10171044
KPEO 180114Z AUTO 21006KT 2SM -SN BKN050 OVC070 M01/M04 A2999 RMK AO2 SNB0059 P0000 T10111044
KPEO 180053Z AUTO 21006G15KT 8SM OVC075 M01/M05 A2999 RMK AO2 SNB03E17 SLP171 P0000 T10111050
KPEO 172353Z AUTO 17013KT 8SM OVC043 M01/M07 A3000 RMK AO2 SLP172 T10061067 10011 21011 58014
KPEO 172253Z AUTO 19008KT 10SM OVC090 00/M08 A3003 RMK AO2 SLP182 T00001083
KPEO 172153Z AUTO 18014G18KT 10SM FEW120 01/M09 A3005 RMK AO2 SLP188 T00061094
KPEO 172053Z AUTO 19011KT 10SM OVC110 01/M11 A3004 RMK AO2 SLP186 T00111111 56037
KPEO 171953Z AUTO 14010KT 10SM CLR 00/M09 A3006 RMK AO2 SLP194 T00001094
KPEO 171853Z AUTO 16007KT 10SM CLR 00/M11 A3009 RMK AO2 SLP203 T00001106
KPEO 171753Z AUTO VRB03KT 10SM CLR M01/M11 A3015 RMK AO2 SLP225 T10111111 11011 21078 58040
KPEO 171653Z AUTO 21008KT 10SM CLR M02/M12 A3020 RMK AO2 SLP240 T10171117
KPEO 171553Z AUTO 19009KT 10SM CLR M03/M11 A3025 RMK AO2 SLP257 T10281106
KPEO 171453Z AUTO 23007KT 10SM CLR M04/M11 A3027 RMK AO2 SLP267 T10391106 58017
KPEO 171353Z AUTO 22004KT 10SM CLR M06/M10 A3030 RMK AO2 SLP275 T10561100
KPEO 171253Z AUTO 21005KT 10SM CLR M07/M11 A3031 RMK AO2 SLP278 T10671106
KPEO 171153Z AUTO 22004KT 10SM CLR M08/M11 A3032 RMK AO2 SLP284 T10781111 11061 21083 53008
KPEO 171053Z AUTO 21004KT 10SM CLR M08/M11 A3031 RMK AO2 SLP281 T10781111
KPEO 170953Z AUTO 21004KT 10SM CLR M07/M11 A3030 RMK AO2 SLP277 T10671111
KPEO 170853Z AUTO 22004KT 10SM CLR M07/M11 A3030 RMK AO2 SLP274 T10671111 53016
KPEO 170753Z AUTO 00000KT 10SM CLR M08/M12 A3028 RMK AO2 SLP269 T10781122